sensor_id;sensor_type;location;lat;lon;timestamp;P1;durP1;ratioP1;P2;durP2;ratioP2
11064;SDS011;5585;52.530;7.320;2023-11-18T00:00:22;17.10;;;15.07;;
11064;SDS011;5585;52.530;7.320;2023-11-18T00:02:49;16.27;;;14.00;;
11064;SDS011;5585;52.530;7.320;2023-11-18T00:05:18;16.50;;;13.63;;
11064;SDS011;5585;52.530;7.320;2023-11-18T00:07:44;16.27;;;14.57;;
11064;SDS011;5585;52.530;7.320;2023-11-18T00:10:14;15.03;;;12.83;;
11064;SDS011;5585;52.530;7.320;2023-11-18T00:12:40;16.47;;;13.30;;
11064;SDS011;5585;52.530;7.320;2023-11-18T00:15:07;17.60;;;14.10;;
11064;SDS011;5585;52.530;7.320;2023-11-18T00:17:35;16.53;;;14.73;;
11064;SDS011;5585;52.530;7.320;2023-11-18T00:20:02;16.40;;;14.43;;
11064;SDS011;5585;52.530;7.320;2023-11-18T00:22:35;16.00;;;14.30;;
11064;SDS011;5585;52.530;7.320;2023-11-18T00:25:02;17.13;;;14.03;;
11064;SDS011;5585;52.530;7.320;2023-11-18T00:27:30;16.17;;;13.70;;
11064;SDS011;5585;52.530;7.320;2023-11-18T00:29:56;15.63;;;13.67;;
11064;SDS011;5585;52.530;7.320;2023-11-18T00:32:23;17.47;;;15.67;;
11064;SDS011;5585;52.530;7.320;2023-11-18T00:34:49;17.53;;;14.70;;
11064;SDS011;5585;52.530;7.320;2023-11-18T00:37:16;17.13;;;14.13;;
11064;SDS011;5585;52.530;7.320;2023-11-18T00:39:44;16.67;;;14.27;;
11064;SDS011;5585;52.530;7.320;2023-11-18T00:42:10;15.50;;;13.67;;
11064;SDS011;5585;52.530;7.320;2023-11-18T00:47:39;16.37;;;13.33;;
11064;SDS011;5585;52.530;7.320;2023-11-18T00:50:07;15.47;;;13.73;;
11064;SDS011;5585;52.530;7.320;2023-11-18T00:52:34;16.50;;;13.97;;
11064;SDS011;5585;52.530;7.320;2023-11-18T00:55:05;14.43;;;12.63;;
11064;SDS011;5585;52.530;7.320;2023-11-18T00:57:32;16.63;;;13.47;;
11064;SDS011;5585;52.530;7.320;2023-11-18T00:59:59;17.67;;;13.90;;
11064;SDS011;5585;52.530;7.320;2023-11-18T01:02:28;13.87;;;12.23;;
11064;SDS011;5585;52.530;7.320;2023-11-18T01:04:55;15.73;;;13.00;;
11064;SDS011;5585;52.530;7.320;2023-11-18T01:07:22;15.93;;;13.40;;
11064;SDS011;5585;52.530;7.320;2023-11-18T01:09:48;15.07;;;13.00;;
11064;SDS011;5585;52.530;7.320;2023-11-18T01:12:16;15.30;;;12.07;;
11064;SDS011;5585;52.530;7.320;2023-11-18T01:14:46;17.80;;;13.40;;
11064;SDS011;5585;52.530;7.320;2023-11-18T01:17:12;17.63;;;13.73;;
11064;SDS011;5585;52.530;7.320;2023-11-18T01:19:39;15.60;;;13.50;;
11064;SDS011;5585;52.530;7.320;2023-11-18T01:22:05;16.23;;;13.37;;
11064;SDS011;5585;52.530;7.320;2023-11-18T01:24:32;15.20;;;12.57;;
11064;SDS011;5585;52.530;7.320;2023-11-18T01:27:01;17.50;;;13.60;;
11064;SDS011;5585;52.530;7.320;2023-11-18T01:29:29;17.03;;;13.67;;
11064;SDS011;5585;52.530;7.320;2023-11-18T01:31:56;15.07;;;12.77;;
11064;SDS011;5585;52.530;7.320;2023-11-18T01:34:23;15.23;;;12.17;;
11064;SDS011;5585;52.530;7.320;2023-11-18T01:36:50;15.63;;;13.20;;
11064;SDS011;5585;52.530;7.320;2023-11-18T01:39:18;16.67;;;13.60;;
11064;SDS011;5585;52.530;7.320;2023-11-18T01:41:45;16.73;;;12.93;;
11064;SDS011;5585;52.530;7.320;2023-11-18T01:44:12;15.47;;;12.90;;
11064;SDS011;5585;52.530;7.320;2023-11-18T01:46:41;16.07;;;12.83;;
11064;SDS011;5585;52.530;7.320;2023-11-18T01:49:10;18.40;;;14.90;;
11064;SDS011;5585;52.530;7.320;2023-11-18T01:51:36;16.33;;;12.93;;
11064;SDS011;5585;52.530;7.320;2023-11-18T01:54:03;17.17;;;13.93;;
11064;SDS011;5585;52.530;7.320;2023-11-18T01:59:33;14.80;;;12.40;;
11064;SDS011;5585;52.530;7.320;2023-11-18T02:02:01;13.97;;;12.37;;
11064;SDS011;5585;52.530;7.320;2023-11-18T02:04:27;15.93;;;12.97;;
11064;SDS011;5585;52.530;7.320;2023-11-18T02:06:54;14.47;;;12.53;;
11064;SDS011;5585;52.530;7.320;2023-11-18T02:09:21;14.90;;;13.33;;
11064;SDS011;5585;52.530;7.320;2023-11-18T02:11:55;14.40;;;12.00;;
11064;SDS011;5585;52.530;7.320;2023-11-18T02:14:22;15.13;;;12.33;;
11064;SDS011;5585;52.530;7.320;2023-11-18T02:16:52;17.27;;;12.73;;
11064;SDS011;5585;52.530;7.320;2023-11-18T02:19:21;16.27;;;12.77;;
11064;SDS011;5585;52.530;7.320;2023-11-18T02:21:48;16.40;;;12.70;;
11064;SDS011;5585;52.530;7.320;2023-11-18T02:24:24;14.70;;;11.97;;
11064;SDS011;5585;52.530;7.320;2023-11-18T02:26:53;16.73;;;12.63;;
11064;SDS011;5585;52.530;7.320;2023-11-18T02:29:20;14.17;;;11.60;;
11064;SDS011;5585;52.530;7.320;2023-11-18T02:31:47;15.00;;;12.23;;
11064;SDS011;5585;52.530;7.320;2023-11-18T02:34:16;14.53;;;13.00;;
11064;SDS011;5585;52.530;7.320;2023-11-18T02:36:46;14.40;;;11.67;;
11064;SDS011;5585;52.530;7.320;2023-11-18T02:39:19;15.13;;;12.70;;
11064;SDS011;5585;52.530;7.320;2023-11-18T02:41:51;14.37;;;11.70;;
11064;SDS011;5585;52.530;7.320;2023-11-18T02:44:23;15.43;;;12.20;;
11064;SDS011;5585;52.530;7.320;2023-11-18T02:46:50;13.83;;;11.50;;
11064;SDS011;5585;52.530;7.320;2023-11-18T02:49:17;16.17;;;12.00;;
11064;SDS011;5585;52.530;7.320;2023-11-18T02:51:43;15.90;;;12.53;;
11064;SDS011;5585;52.530;7.320;2023-11-18T02:54:12;15.33;;;12.23;;
11064;SDS011;5585;52.530;7.320;2023-11-18T02:56:41;15.57;;;12.33;;
11064;SDS011;5585;52.530;7.320;2023-11-18T02:59:08;13.27;;;11.50;;
11064;SDS011;5585;52.530;7.320;2023-11-18T03:01:36;15.27;;;12.40;;
11064;SDS011;5585;52.530;7.320;2023-11-18T03:04:04;15.73;;;12.27;;
11064;SDS011;5585;52.530;7.320;2023-11-18T03:06:31;15.77;;;12.30;;
11064;SDS011;5585;52.530;7.320;2023-11-18T03:08:58;14.17;;;11.63;;
11064;SDS011;5585;52.530;7.320;2023-11-18T03:11:25;15.17;;;11.97;;
11064;SDS011;5585;52.530;7.320;2023-11-18T03:13:51;14.77;;;11.80;;
11064;SDS011;5585;52.530;7.320;2023-11-18T03:16:18;16.57;;;12.97;;
11064;SDS011;5585;52.530;7.320;2023-11-18T03:18:47;15.93;;;12.43;;
11064;SDS011;5585;52.530;7.320;2023-11-18T03:21:13;15.30;;;11.50;;
11064;SDS011;5585;52.530;7.320;2023-11-18T03:23:40;15.67;;;12.10;;
11064;SDS011;5585;52.530;7.320;2023-11-18T03:26:06;15.43;;;12.23;;
11064;SDS011;5585;52.530;7.320;2023-11-18T03:28:33;16.53;;;12.07;;
11064;SDS011;5585;52.530;7.320;2023-11-18T03:31:01;15.50;;;11.87;;
11064;SDS011;5585;52.530;7.320;2023-11-18T03:33:28;14.83;;;11.80;;
11064;SDS011;5585;52.530;7.320;2023-11-18T03:35:56;17.33;;;12.83;;
11064;SDS011;5585;52.530;7.320;2023-11-18T03:41:23;15.13;;;11.77;;
11064;SDS011;5585;52.530;7.320;2023-11-18T03:43:50;16.83;;;12.33;;
11064;SDS011;5585;52.530;7.320;2023-11-18T03:46:16;16.07;;;12.87;;
11064;SDS011;5585;52.530;7.320;2023-11-18T03:48:43;14.47;;;11.60;;
11064;SDS011;5585;52.530;7.320;2023-11-18T03:51:11;16.43;;;12.63;;
11064;SDS011;5585;52.530;7.320;2023-11-18T03:53:38;16.67;;;11.97;;
11064;SDS011;5585;52.530;7.320;2023-11-18T03:56:05;16.63;;;12.33;;
11064;SDS011;5585;52.530;7.320;2023-11-18T03:58:31;17.60;;;12.73;;
11064;SDS011;5585;52.530;7.320;2023-11-18T04:00:58;17.70;;;11.97;;
11064;SDS011;5585;52.530;7.320;2023-11-18T04:03:24;15.40;;;11.63;;
11064;SDS011;5585;52.530;7.320;2023-11-18T04:05:51;14.97;;;11.27;;
11064;SDS011;5585;52.530;7.320;2023-11-18T04:08:19;15.60;;;11.70;;
11064;SDS011;5585;52.530;7.320;2023-11-18T04:10:46;19.07;;;11.90;;
11064;SDS011;5585;52.530;7.320;2023-11-18T04:13:13;14.73;;;11.27;;
11064;SDS011;5585;52.530;7.320;2023-11-18T04:15:39;13.43;;;10.67;;
11064;SDS011;5585;52.530;7.320;2023-11-18T04:18:05;15.00;;;12.13;;
11064;SDS011;5585;52.530;7.320;2023-11-18T04:20:32;16.07;;;11.63;;
11064;SDS011;5585;52.530;7.320;2023-11-18T04:22:58;15.40;;;11.90;;
11064;SDS011;5585;52.530;7.320;2023-11-18T04:25:26;14.30;;;11.50;;
11064;SDS011;5585;52.530;7.320;2023-11-18T04:27:53;15.27;;;11.07;;
11064;SDS011;5585;52.530;7.320;2023-11-18T04:30:19;16.70;;;12.60;;
11064;SDS011;5585;52.530;7.320;2023-11-18T04:32:46;16.33;;;11.67;;
11064;SDS011;5585;52.530;7.320;2023-11-18T04:35:12;14.07;;;10.43;;
11064;SDS011;5585;52.530;7.320;2023-11-18T04:37:39;13.57;;;10.83;;
11064;SDS011;5585;52.530;7.320;2023-11-18T04:40:08;13.27;;;11.07;;
11064;SDS011;5585;52.530;7.320;2023-11-18T04:42:40;14.03;;;11.27;;
11064;SDS011;5585;52.530;7.320;2023-11-18T04:45:07;14.90;;;11.13;;
11064;SDS011;5585;52.530;7.320;2023-11-18T04:47:37;14.07;;;11.13;;
11064;SDS011;5585;52.530;7.320;2023-11-18T04:50:04;13.93;;;10.70;;
11064;SDS011;5585;52.530;7.320;2023-11-18T04:52:31;13.83;;;10.77;;
11064;SDS011;5585;52.530;7.320;2023-11-18T04:54:59;16.60;;;11.73;;
11064;SDS011;5585;52.530;7.320;2023-11-18T04:57:26;15.57;;;11.43;;
11064;SDS011;5585;52.530;7.320;2023-11-18T04:59:57;15.47;;;12.07;;
11064;SDS011;5585;52.530;7.320;2023-11-18T05:02:23;14.40;;;11.07;;
11064;SDS011;5585;52.530;7.320;2023-11-18T05:04:49;15.43;;;11.97;;
11064;SDS011;5585;52.530;7.320;2023-11-18T05:07:15;14.73;;;11.57;;
11064;SDS011;5585;52.530;7.320;2023-11-18T05:09:42;15.50;;;11.87;;
11064;SDS011;5585;52.530;7.320;2023-11-18T05:12:09;15.87;;;11.93;;
11064;SDS011;5585;52.530;7.320;2023-11-18T05:14:35;15.27;;;11.40;;
11064;SDS011;5585;52.530;7.320;2023-11-18T05:17:04;18.07;;;12.33;;
11064;SDS011;5585;52.530;7.320;2023-11-18T05:22:22;15.17;;;11.23;;
11064;SDS011;5585;52.530;7.320;2023-11-18T05:24:49;16.27;;;12.53;;
11064;SDS011;5585;52.530;7.320;2023-11-18T05:27:15;13.73;;;10.90;;
11064;SDS011;5585;52.530;7.320;2023-11-18T05:29:42;15.63;;;11.87;;
11064;SDS011;5585;52.530;7.320;2023-11-18T05:32:11;16.67;;;12.23;;
11064;SDS011;5585;52.530;7.320;2023-11-18T05:34:40;15.20;;;11.83;;
11064;SDS011;5585;52.530;7.320;2023-11-18T05:37:07;14.40;;;11.60;;
11064;SDS011;5585;52.530;7.320;2023-11-18T05:39:33;15.30;;;11.90;;
11064;SDS011;5585;52.530;7.320;2023-11-18T05:42:08;16.23;;;12.20;;
11064;SDS011;5585;52.530;7.320;2023-11-18T05:44:35;15.27;;;12.30;;
11064;SDS011;5585;52.530;7.320;2023-11-18T05:47:04;16.80;;;12.47;;
11064;SDS011;5585;52.530;7.320;2023-11-18T05:49:33;15.77;;;12.50;;
11064;SDS011;5585;52.530;7.320;2023-11-18T05:51:59;17.07;;;12.10;;
11064;SDS011;5585;52.530;7.320;2023-11-18T05:54:26;16.17;;;12.20;;
11064;SDS011;5585;52.530;7.320;2023-11-18T05:56:53;17.23;;;13.27;;
11064;SDS011;5585;52.530;7.320;2023-11-18T05:59:19;16.23;;;13.33;;
11064;SDS011;5585;52.530;7.320;2023-11-18T06:01:47;16.63;;;12.67;;
11064;SDS011;5585;52.530;7.320;2023-11-18T06:04:13;18.00;;;13.87;;
11064;SDS011;5585;52.530;7.320;2023-11-18T06:06:42;19.10;;;13.73;;
11064;SDS011;5585;52.530;7.320;2023-11-18T06:09:08;19.80;;;14.60;;
11064;SDS011;5585;52.530;7.320;2023-11-18T06:11:43;19.33;;;13.97;;
11064;SDS011;5585;52.530;7.320;2023-11-18T06:14:10;19.30;;;14.20;;
11064;SDS011;5585;52.530;7.320;2023-11-18T06:16:37;21.70;;;15.83;;
11064;SDS011;5585;52.530;7.320;2023-11-18T06:19:05;19.23;;;14.50;;
11064;SDS011;5585;52.530;7.320;2023-11-18T06:21:31;21.53;;;15.73;;
11064;SDS011;5585;52.530;7.320;2023-11-18T06:24:00;22.53;;;15.97;;
11064;SDS011;5585;52.530;7.320;2023-11-18T06:26:29;22.20;;;16.47;;
11064;SDS011;5585;52.530;7.320;2023-11-18T06:28:56;21.23;;;16.40;;
11064;SDS011;5585;52.530;7.320;2023-11-18T06:31:24;21.80;;;16.93;;
11064;SDS011;5585;52.530;7.320;2023-11-18T06:33:51;23.07;;;16.40;;
11064;SDS011;5585;52.530;7.320;2023-11-18T06:36:17;22.40;;;16.63;;
11064;SDS011;5585;52.530;7.320;2023-11-18T06:38:44;22.63;;;16.50;;
11064;SDS011;5585;52.530;7.320;2023-11-18T06:41:12;23.33;;;16.67;;
11064;SDS011;5585;52.530;7.320;2023-11-18T06:43:41;21.00;;;15.40;;
11064;SDS011;5585;52.530;7.320;2023-11-18T06:46:18;22.20;;;16.47;;
11064;SDS011;5585;52.530;7.320;2023-11-18T06:48:46;21.97;;;16.50;;
11064;SDS011;5585;52.530;7.320;2023-11-18T06:51:13;22.37;;;16.27;;
11064;SDS011;5585;52.530;7.320;2023-11-18T06:53:40;24.03;;;17.77;;
11064;SDS011;5585;52.530;7.320;2023-11-18T06:56:07;22.70;;;16.97;;
11064;SDS011;5585;52.530;7.320;2023-11-18T06:58:35;22.03;;;17.10;;
11064;SDS011;5585;52.530;7.320;2023-11-18T07:01:03;23.07;;;17.43;;
11064;SDS011;5585;52.530;7.320;2023-11-18T07:03:30;22.93;;;17.37;;
11064;SDS011;5585;52.530;7.320;2023-11-18T07:05:57;22.63;;;17.83;;
11064;SDS011;5585;52.530;7.320;2023-11-18T07:08:24;24.63;;;18.60;;
11064;SDS011;5585;52.530;7.320;2023-11-18T07:10:50;21.57;;;16.97;;
11064;SDS011;5585;52.530;7.320;2023-11-18T07:13:17;22.37;;;17.60;;
11064;SDS011;5585;52.530;7.320;2023-11-18T07:15:45;19.23;;;15.97;;
11064;SDS011;5585;52.530;7.320;2023-11-18T07:18:11;22.50;;;17.57;;
11064;SDS011;5585;52.530;7.320;2023-11-18T07:20:38;22.00;;;17.90;;
11064;SDS011;5585;52.530;7.320;2023-11-18T07:23:04;22.00;;;17.47;;
11064;SDS011;5585;52.530;7.320;2023-11-18T07:25:33;22.23;;;17.07;;
11064;SDS011;5585;52.530;7.320;2023-11-18T07:28:00;21.57;;;16.67;;
11064;SDS011;5585;52.530;7.320;2023-11-18T07:30:27;21.50;;;17.30;;
11064;SDS011;5585;52.530;7.320;2023-11-18T07:32:55;21.90;;;16.50;;
11064;SDS011;5585;52.530;7.320;2023-11-18T07:35:24;21.87;;;16.60;;
11064;SDS011;5585;52.530;7.320;2023-11-18T07:37:50;22.93;;;17.23;;
11064;SDS011;5585;52.530;7.320;2023-11-18T07:40:17;20.93;;;16.40;;
11064;SDS011;5585;52.530;7.320;2023-11-18T07:42:55;20.23;;;15.73;;
11064;SDS011;5585;52.530;7.320;2023-11-18T07:45:22;20.20;;;15.47;;
11064;SDS011;5585;52.530;7.320;2023-11-18T07:47:49;21.63;;;16.23;;
11064;SDS011;5585;52.530;7.320;2023-11-18T07:50:17;18.83;;;15.03;;
11064;SDS011;5585;52.530;7.320;2023-11-18T07:52:45;20.23;;;15.50;;
11064;SDS011;5585;52.530;7.320;2023-11-18T07:55:11;17.80;;;14.43;;
11064;SDS011;5585;52.530;7.320;2023-11-18T07:57:38;18.67;;;13.90;;
11064;SDS011;5585;52.530;7.320;2023-11-18T08:00:05;18.70;;;14.30;;
11064;SDS011;5585;52.530;7.320;2023-11-18T08:02:34;19.77;;;15.10;;
11064;SDS011;5585;52.530;7.320;2023-11-18T08:05:01;18.77;;;14.03;;
11064;SDS011;5585;52.530;7.320;2023-11-18T08:07:30;17.47;;;14.20;;
11064;SDS011;5585;52.530;7.320;2023-11-18T08:09:59;19.30;;;14.87;;
11064;SDS011;5585;52.530;7.320;2023-11-18T08:12:28;17.77;;;14.03;;
11064;SDS011;5585;52.530;7.320;2023-11-18T08:14:55;17.97;;;13.83;;
11064;SDS011;5585;52.530;7.320;2023-11-18T08:17:22;18.30;;;14.07;;
11064;SDS011;5585;52.530;7.320;2023-11-18T08:19:50;16.47;;;12.87;;
11064;SDS011;5585;52.530;7.320;2023-11-18T08:22:18;18.63;;;13.60;;
11064;SDS011;5585;52.530;7.320;2023-11-18T08:24:52;16.13;;;13.03;;
11064;SDS011;5585;52.530;7.320;2023-11-18T08:27:18;17.60;;;14.67;;
11064;SDS011;5585;52.530;7.320;2023-11-18T08:29:45;17.07;;;14.07;;
11064;SDS011;5585;52.530;7.320;2023-11-18T08:32:13;17.57;;;14.40;;
11064;SDS011;5585;52.530;7.320;2023-11-18T08:34:40;18.27;;;13.93;;
11064;SDS011;5585;52.530;7.320;2023-11-18T08:37:06;17.67;;;14.43;;
11064;SDS011;5585;52.530;7.320;2023-11-18T08:39:34;17.83;;;13.77;;
11064;SDS011;5585;52.530;7.320;2023-11-18T08:42:02;15.20;;;12.83;;
11064;SDS011;5585;52.530;7.320;2023-11-18T08:44:29;16.77;;;13.23;;
11064;SDS011;5585;52.530;7.320;2023-11-18T08:46:57;16.30;;;12.80;;
11064;SDS011;5585;52.530;7.320;2023-11-18T08:49:24;18.03;;;13.37;;
11064;SDS011;5585;52.530;7.320;2023-11-18T08:51:51;15.37;;;12.77;;
11064;SDS011;5585;52.530;7.320;2023-11-18T08:54:21;16.63;;;13.47;;
11064;SDS011;5585;52.530;7.320;2023-11-18T08:57:02;16.70;;;13.20;;
11064;SDS011;5585;52.530;7.320;2023-11-18T08:59:29;16.30;;;12.90;;
11064;SDS011;5585;52.530;7.320;2023-11-18T09:01:56;15.90;;;13.40;;
11064;SDS011;5585;52.530;7.320;2023-11-18T09:04:24;16.20;;;13.17;;
11064;SDS011;5585;52.530;7.320;2023-11-18T09:06:51;16.17;;;12.67;;
11064;SDS011;5585;52.530;7.320;2023-11-18T09:09:19;15.13;;;12.90;;
11064;SDS011;5585;52.530;7.320;2023-11-18T09:11:51;17.17;;;13.57;;
11064;SDS011;5585;52.530;7.320;2023-11-18T09:14:19;15.57;;;12.40;;
11064;SDS011;5585;52.530;7.320;2023-11-18T09:16:46;16.80;;;13.43;;
11064;SDS011;5585;52.530;7.320;2023-11-18T09:19:12;15.97;;;13.10;;
11064;SDS011;5585;52.530;7.320;2023-11-18T09:21:39;17.50;;;13.63;;
11064;SDS011;5585;52.530;7.320;2023-11-18T09:24:07;16.17;;;12.97;;
11064;SDS011;5585;52.530;7.320;2023-11-18T09:26:37;16.90;;;13.77;;
11064;SDS011;5585;52.530;7.320;2023-11-18T09:29:04;15.43;;;12.47;;
11064;SDS011;5585;52.530;7.320;2023-11-18T09:31:35;15.97;;;12.90;;
11064;SDS011;5585;52.530;7.320;2023-11-18T09:34:02;14.87;;;12.80;;
11064;SDS011;5585;52.530;7.320;2023-11-18T09:36:31;14.97;;;11.90;;
11064;SDS011;5585;52.530;7.320;2023-11-18T09:39:02;15.30;;;12.40;;
11064;SDS011;5585;52.530;7.320;2023-11-18T09:41:29;17.23;;;13.90;;
11064;SDS011;5585;52.530;7.320;2023-11-18T09:43:58;15.73;;;13.20;;
11064;SDS011;5585;52.530;7.320;2023-11-18T09:46:31;17.40;;;13.77;;
11064;SDS011;5585;52.530;7.320;2023-11-18T09:49:04;15.20;;;12.60;;
11064;SDS011;5585;52.530;7.320;2023-11-18T09:51:40;16.00;;;13.00;;
11064;SDS011;5585;52.530;7.320;2023-11-18T09:54:09;16.77;;;12.37;;
11064;SDS011;5585;52.530;7.320;2023-11-18T09:56:41;15.87;;;13.23;;
11064;SDS011;5585;52.530;7.320;2023-11-18T09:59:18;17.53;;;13.60;;
11064;SDS011;5585;52.530;7.320;2023-11-18T10:01:49;15.50;;;12.80;;
11064;SDS011;5585;52.530;7.320;2023-11-18T10:04:19;17.63;;;13.63;;
11064;SDS011;5585;52.530;7.320;2023-11-18T10:06:46;16.50;;;13.20;;
11064;SDS011;5585;52.530;7.320;2023-11-18T10:09:13;15.70;;;12.77;;
11064;SDS011;5585;52.530;7.320;2023-11-18T10:11:44;16.47;;;13.20;;
11064;SDS011;5585;52.530;7.320;2023-11-18T10:14:13;16.73;;;13.47;;
11064;SDS011;5585;52.530;7.320;2023-11-18T10:16:41;14.87;;;12.73;;
11064;SDS011;5585;52.530;7.320;2023-11-18T10:19:11;16.23;;;12.63;;
11064;SDS011;5585;52.530;7.320;2023-11-18T10:21:38;17.27;;;13.63;;
11064;SDS011;5585;52.530;7.320;2023-11-18T10:24:06;15.40;;;12.73;;
11064;SDS011;5585;52.530;7.320;2023-11-18T10:26:39;14.80;;;12.50;;
11064;SDS011;5585;52.530;7.320;2023-11-18T10:29:06;18.70;;;13.97;;
11064;SDS011;5585;52.530;7.320;2023-11-18T10:31:33;15.57;;;12.30;;
11064;SDS011;5585;52.530;7.320;2023-11-18T10:34:01;14.03;;;11.83;;
11064;SDS011;5585;52.530;7.320;2023-11-18T10:36:29;14.70;;;12.13;;
11064;SDS011;5585;52.530;7.320;2023-11-18T10:39:03;16.17;;;12.73;;
11064;SDS011;5585;52.530;7.320;2023-11-18T10:41:39;16.53;;;14.20;;
11064;SDS011;5585;52.530;7.320;2023-11-18T10:44:07;15.97;;;13.20;;
11064;SDS011;5585;52.530;7.320;2023-11-18T10:46:34;16.60;;;12.80;;
11064;SDS011;5585;52.530;7.320;2023-11-18T10:49:01;14.40;;;12.50;;
11064;SDS011;5585;52.530;7.320;2023-11-18T10:51:27;15.70;;;12.70;;
11064;SDS011;5585;52.530;7.320;2023-11-18T10:53:58;16.87;;;13.17;;
11064;SDS011;5585;52.530;7.320;2023-11-18T10:56:27;14.37;;;12.37;;
11064;SDS011;5585;52.530;7.320;2023-11-18T10:58:55;14.17;;;12.07;;
11064;SDS011;5585;52.530;7.320;2023-11-18T11:01:28;15.97;;;12.33;;
11064;SDS011;5585;52.530;7.320;2023-11-18T11:03:56;15.93;;;12.80;;
11064;SDS011;5585;52.530;7.320;2023-11-18T11:06:23;14.40;;;11.93;;
11064;SDS011;5585;52.530;7.320;2023-11-18T11:08:49;23.03;;;13.77;;
11064;SDS011;5585;52.530;7.320;2023-11-18T11:11:16;15.23;;;12.47;;
11064;SDS011;5585;52.530;7.320;2023-11-18T11:13:48;16.77;;;12.33;;
11064;SDS011;5585;52.530;7.320;2023-11-18T11:16:18;16.47;;;13.80;;
11064;SDS011;5585;52.530;7.320;2023-11-18T11:21:48;14.53;;;11.77;;
11064;SDS011;5585;52.530;7.320;2023-11-18T11:24:20;13.80;;;11.70;;
11064;SDS011;5585;52.530;7.320;2023-11-18T11:27:00;15.07;;;12.73;;
11064;SDS011;5585;52.530;7.320;2023-11-18T11:29:35;14.27;;;12.33;;
11064;SDS011;5585;52.530;7.320;2023-11-18T11:32:06;15.40;;;12.50;;
11064;SDS011;5585;52.530;7.320;2023-11-18T11:34:38;16.53;;;11.80;;
11064;SDS011;5585;52.530;7.320;2023-11-18T11:37:11;17.57;;;13.60;;
11064;SDS011;5585;52.530;7.320;2023-11-18T11:39:40;16.37;;;12.57;;
11064;SDS011;5585;52.530;7.320;2023-11-18T11:42:11;15.90;;;12.93;;
11064;SDS011;5585;52.530;7.320;2023-11-18T11:44:40;14.17;;;11.70;;
11064;SDS011;5585;52.530;7.320;2023-11-18T11:47:08;14.13;;;11.43;;
11064;SDS011;5585;52.530;7.320;2023-11-18T11:49:41;13.33;;;11.27;;
11064;SDS011;5585;52.530;7.320;2023-11-18T11:52:15;12.37;;;10.93;;
11064;SDS011;5585;52.530;7.320;2023-11-18T11:54:48;14.60;;;12.27;;
11064;SDS011;5585;52.530;7.320;2023-11-18T11:57:21;14.93;;;12.23;;
11064;SDS011;5585;52.530;7.320;2023-11-18T11:59:55;12.73;;;10.70;;
11064;SDS011;5585;52.530;7.320;2023-11-18T12:02:22;13.10;;;11.13;;
11064;SDS011;5585;52.530;7.320;2023-11-18T12:04:51;16.83;;;12.17;;
11064;SDS011;5585;52.530;7.320;2023-11-18T12:07:19;14.97;;;12.17;;
11064;SDS011;5585;52.530;7.320;2023-11-18T12:09:48;13.43;;;11.77;;
11064;SDS011;5585;52.530;7.320;2023-11-18T12:12:19;15.10;;;11.60;;
11064;SDS011;5585;52.530;7.320;2023-11-18T12:14:49;12.27;;;10.97;;
11064;SDS011;5585;52.530;7.320;2023-11-18T12:17:18;14.63;;;12.73;;
11064;SDS011;5585;52.530;7.320;2023-11-18T12:19:49;14.23;;;11.67;;
11064;SDS011;5585;52.530;7.320;2023-11-18T12:22:21;15.20;;;12.27;;
11064;SDS011;5585;52.530;7.320;2023-11-18T12:27:42;13.33;;;11.80;;
11064;SDS011;5585;52.530;7.320;2023-11-18T12:33:03;14.73;;;11.97;;
11064;SDS011;5585;52.530;7.320;2023-11-18T12:35:31;14.50;;;11.63;;
11064;SDS011;5585;52.530;7.320;2023-11-18T12:38:08;14.77;;;11.77;;
11064;SDS011;5585;52.530;7.320;2023-11-18T12:40:47;13.77;;;11.93;;
11064;SDS011;5585;52.530;7.320;2023-11-18T12:43:17;14.67;;;11.37;;
11064;SDS011;5585;52.530;7.320;2023-11-18T12:48:42;14.53;;;11.43;;
11064;SDS011;5585;52.530;7.320;2023-11-18T12:51:11;13.27;;;10.57;;
11064;SDS011;5585;52.530;7.320;2023-11-18T12:53:44;12.83;;;11.43;;
11064;SDS011;5585;52.530;7.320;2023-11-18T12:56:11;14.83;;;12.17;;
11064;SDS011;5585;52.530;7.320;2023-11-18T12:58:38;13.43;;;11.20;;
11064;SDS011;5585;52.530;7.320;2023-11-18T13:01:05;13.53;;;10.70;;
11064;SDS011;5585;52.530;7.320;2023-11-18T13:03:32;11.93;;;9.93;;
11064;SDS011;5585;52.530;7.320;2023-11-18T13:06:00;14.53;;;11.37;;
11064;SDS011;5585;52.530;7.320;2023-11-18T13:08:31;14.90;;;11.70;;
11064;SDS011;5585;52.530;7.320;2023-11-18T13:10:57;14.50;;;11.40;;
11064;SDS011;5585;52.530;7.320;2023-11-18T13:13:28;13.53;;;11.27;;
11064;SDS011;5585;52.530;7.320;2023-11-18T13:15:55;15.23;;;11.83;;
11064;SDS011;5585;52.530;7.320;2023-11-18T13:18:21;14.10;;;11.60;;
11064;SDS011;5585;52.530;7.320;2023-11-18T13:20:54;13.10;;;11.53;;
11064;SDS011;5585;52.530;7.320;2023-11-18T13:23:25;14.50;;;11.43;;
11064;SDS011;5585;52.530;7.320;2023-11-18T13:25:54;12.50;;;10.57;;
11064;SDS011;5585;52.530;7.320;2023-11-18T13:28:21;15.53;;;10.83;;
11064;SDS011;5585;52.530;7.320;2023-11-18T13:30:48;12.77;;;10.77;;
11064;SDS011;5585;52.530;7.320;2023-11-18T13:33:15;12.43;;;10.57;;
11064;SDS011;5585;52.530;7.320;2023-11-18T13:35:41;11.80;;;10.57;;
11064;SDS011;5585;52.530;7.320;2023-11-18T13:38:08;14.43;;;12.13;;
11064;SDS011;5585;52.530;7.320;2023-11-18T13:40:44;15.57;;;11.40;;
11064;SDS011;5585;52.530;7.320;2023-11-18T13:43:11;13.50;;;10.50;;
11064;SDS011;5585;52.530;7.320;2023-11-18T13:45:38;12.37;;;10.30;;
11064;SDS011;5585;52.530;7.320;2023-11-18T13:48:05;14.67;;;11.17;;
11064;SDS011;5585;52.530;7.320;2023-11-18T13:50:33;12.97;;;10.83;;
11064;SDS011;5585;52.530;7.320;2023-11-18T13:53:01;11.97;;;9.97;;
11064;SDS011;5585;52.530;7.320;2023-11-18T13:55:27;12.93;;;10.07;;
11064;SDS011;5585;52.530;7.320;2023-11-18T13:57:58;12.03;;;10.23;;
11064;SDS011;5585;52.530;7.320;2023-11-18T14:00:25;11.63;;;9.53;;
11064;SDS011;5585;52.530;7.320;2023-11-18T14:02:53;13.40;;;9.77;;
11064;SDS011;5585;52.530;7.320;2023-11-18T14:05:21;12.07;;;9.93;;
11064;SDS011;5585;52.530;7.320;2023-11-18T14:07:49;12.70;;;9.30;;
11064;SDS011;5585;52.530;7.320;2023-11-18T14:10:20;12.57;;;9.30;;
11064;SDS011;5585;52.530;7.320;2023-11-18T14:13:00;10.40;;;9.27;;
11064;SDS011;5585;52.530;7.320;2023-11-18T14:15:27;10.80;;;9.70;;
11064;SDS011;5585;52.530;7.320;2023-11-18T14:17:54;11.03;;;9.30;;
11064;SDS011;5585;52.530;7.320;2023-11-18T14:20:21;11.10;;;9.70;;
11064;SDS011;5585;52.530;7.320;2023-11-18T14:22:48;10.97;;;9.50;;
11064;SDS011;5585;52.530;7.320;2023-11-18T14:25:16;11.20;;;9.50;;
11064;SDS011;5585;52.530;7.320;2023-11-18T14:27:43;12.47;;;10.70;;
11064;SDS011;5585;52.530;7.320;2023-11-18T14:30:12;10.77;;;9.67;;
11064;SDS011;5585;52.530;7.320;2023-11-18T14:32:38;11.03;;;9.73;;
11064;SDS011;5585;52.530;7.320;2023-11-18T14:35:05;10.80;;;9.13;;
11064;SDS011;5585;52.530;7.320;2023-11-18T14:37:34;11.10;;;9.87;;
11064;SDS011;5585;52.530;7.320;2023-11-18T14:40:04;12.03;;;10.20;;
11064;SDS011;5585;52.530;7.320;2023-11-18T14:42:33;12.87;;;10.67;;
11064;SDS011;5585;52.530;7.320;2023-11-18T14:45:00;11.40;;;9.13;;
11064;SDS011;5585;52.530;7.320;2023-11-18T14:47:31;12.80;;;10.33;;
11064;SDS011;5585;52.530;7.320;2023-11-18T14:49:58;11.10;;;9.90;;
11064;SDS011;5585;52.530;7.320;2023-11-18T14:52:25;16.33;;;10.30;;
11064;SDS011;5585;52.530;7.320;2023-11-18T14:54:51;13.53;;;10.50;;
11064;SDS011;5585;52.530;7.320;2023-11-18T14:57:18;9.77;;;8.77;;
11064;SDS011;5585;52.530;7.320;2023-11-18T14:59:44;11.70;;;10.00;;
11064;SDS011;5585;52.530;7.320;2023-11-18T15:02:11;12.37;;;10.40;;
11064;SDS011;5585;52.530;7.320;2023-11-18T15:04:39;11.30;;;10.00;;